sensor_id;sensor_type;location;lat;lon;timestamp;P1;durP1;ratioP1;P2;durP2;ratioP2
73675;SDS011;61975;48.660;10.164;2022-10-17T00:01:21;6.03;;;2.23;;
73675;SDS011;61975;48.660;10.164;2022-10-17T00:03:47;6.50;;;2.40;;
73675;SDS011;61975;48.660;10.164;2022-10-17T00:06:13;5.07;;;2.50;;
73675;SDS011;61975;48.660;10.164;2022-10-17T00:08:40;5.78;;;2.70;;
73675;SDS011;61975;48.660;10.164;2022-10-17T00:11:08;5.20;;;2.45;;
73675;SDS011;61975;48.660;10.164;2022-10-17T00:13:38;7.97;;;2.60;;
73675;SDS011;61975;48.660;10.164;2022-10-17T00:16:03;5.70;;;2.60;;
73675;SDS011;61975;48.660;10.164;2022-10-17T00:18:30;4.47;;;2.47;;
73675;SDS011;61975;48.660;10.164;2022-10-17T00:20:55;6.23;;;2.67;;
73675;SDS011;61975;48.660;10.164;2022-10-17T00:23:20;5.33;;;2.33;;
73675;SDS011;61975;48.660;10.164;2022-10-17T00:25:46;4.25;;;2.20;;
73675;SDS011;61975;48.660;10.164;2022-10-17T00:28:12;5.67;;;2.60;;
73675;SDS011;61975;48.660;10.164;2022-10-17T00:30:38;6.25;;;2.72;;
73675;SDS011;61975;48.660;10.164;2022-10-17T00:33:04;15.20;;;2.73;;
73675;SDS011;61975;48.660;10.164;2022-10-17T00:35:30;6.75;;;2.90;;
73675;SDS011;61975;48.660;10.164;2022-10-17T00:37:56;8.77;;;3.00;;
73675;SDS011;61975;48.660;10.164;2022-10-17T00:40:22;12.07;;;2.77;;
73675;SDS011;61975;48.660;10.164;2022-10-17T00:42:48;16.20;;;3.85;;
73675;SDS011;61975;48.660;10.164;2022-10-17T00:45:17;18.13;;;3.08;;
73675;SDS011;61975;48.660;10.164;2022-10-17T00:47:50;36.75;;;4.03;;
73675;SDS011;61975;48.660;10.164;2022-10-17T00:50:19;10.07;;;2.80;;
73675;SDS011;61975;48.660;10.164;2022-10-17T00:52:45;17.48;;;3.00;;
73675;SDS011;61975;48.660;10.164;2022-10-17T00:55:13;11.05;;;2.67;;
73675;SDS011;61975;48.660;10.164;2022-10-17T00:57:39;7.93;;;2.80;;
73675;SDS011;61975;48.660;10.164;2022-10-17T01:00:06;6.88;;;2.65;;
73675;SDS011;61975;48.660;10.164;2022-10-17T01:02:33;8.90;;;2.58;;
73675;SDS011;61975;48.660;10.164;2022-10-17T01:04:59;6.50;;;2.35;;
73675;SDS011;61975;48.660;10.164;2022-10-17T01:07:26;5.70;;;2.87;;
73675;SDS011;61975;48.660;10.164;2022-10-17T01:09:53;5.47;;;2.20;;
73675;SDS011;61975;48.660;10.164;2022-10-17T01:17:38;5.13;;;2.22;;
73675;SDS011;61975;48.660;10.164;2022-10-17T01:23:27;5.72;;;2.30;;
73675;SDS011;61975;48.660;10.164;2022-10-17T01:34:34;4.90;;;2.00;;
73675;SDS011;61975;48.660;10.164;2022-10-17T01:37:05;6.95;;;2.15;;
73675;SDS011;61975;48.660;10.164;2022-10-17T01:39:44;5.47;;;1.88;;
73675;SDS011;61975;48.660;10.164;2022-10-17T01:42:17;4.15;;;1.80;;
73675;SDS011;61975;48.660;10.164;2022-10-17T01:47:31;4.40;;;1.92;;
73675;SDS011;61975;48.660;10.164;2022-10-17T01:50:03;4.68;;;1.92;;
73675;SDS011;61975;48.660;10.164;2022-10-17T01:52:43;4.28;;;2.17;;
73675;SDS011;61975;48.660;10.164;2022-10-17T01:55:14;7.00;;;2.30;;
73675;SDS011;61975;48.660;10.164;2022-10-17T01:57:50;3.65;;;2.10;;
73675;SDS011;61975;48.660;10.164;2022-10-17T02:00:22;4.60;;;2.28;;
73675;SDS011;61975;48.660;10.164;2022-10-17T02:02:55;4.28;;;1.73;;
73675;SDS011;61975;48.660;10.164;2022-10-17T02:05:27;4.07;;;1.92;;
73675;SDS011;61975;48.660;10.164;2022-10-17T02:07:57;9.68;;;2.20;;
73675;SDS011;61975;48.660;10.164;2022-10-17T02:10:46;6.43;;;2.33;;
73675;SDS011;61975;48.660;10.164;2022-10-17T02:16:07;9.77;;;2.50;;
73675;SDS011;61975;48.660;10.164;2022-10-17T02:19:06;5.55;;;2.13;;
73675;SDS011;61975;48.660;10.164;2022-10-17T02:21:36;4.72;;;2.15;;
73675;SDS011;61975;48.660;10.164;2022-10-17T02:26:59;4.00;;;2.03;;
73675;SDS011;61975;48.660;10.164;2022-10-17T02:29:38;4.93;;;1.90;;
73675;SDS011;61975;48.660;10.164;2022-10-17T02:32:28;6.18;;;2.30;;
73675;SDS011;61975;48.660;10.164;2022-10-17T02:35:01;4.70;;;1.90;;
73675;SDS011;61975;48.660;10.164;2022-10-17T02:37:28;6.53;;;1.85;;
73675;SDS011;61975;48.660;10.164;2022-10-17T02:39:56;4.55;;;2.20;;
73675;SDS011;61975;48.660;10.164;2022-10-17T02:42:23;4.10;;;1.87;;
73675;SDS011;61975;48.660;10.164;2022-10-17T02:44:49;4.53;;;1.90;;
73675;SDS011;61975;48.660;10.164;2022-10-17T02:47:27;5.55;;;2.13;;
73675;SDS011;61975;48.660;10.164;2022-10-17T02:50:02;5.53;;;2.00;;
73675;SDS011;61975;48.660;10.164;2022-10-17T03:00:10;4.85;;;1.90;;
73675;SDS011;61975;48.660;10.164;2022-10-17T03:02:39;4.53;;;2.03;;
73675;SDS011;61975;48.660;10.164;2022-10-17T03:05:07;3.85;;;1.75;;
73675;SDS011;61975;48.660;10.164;2022-10-17T03:07:35;4.45;;;1.90;;
73675;SDS011;61975;48.660;10.164;2022-10-17T03:10:00;4.57;;;1.90;;
73675;SDS011;61975;48.660;10.164;2022-10-17T03:12:25;4.80;;;1.90;;
73675;SDS011;61975;48.660;10.164;2022-10-17T03:14:51;6.17;;;2.17;;
73675;SDS011;61975;48.660;10.164;2022-10-17T03:17:16;4.10;;;1.90;;
73675;SDS011;61975;48.660;10.164;2022-10-17T03:19:41;5.27;;;2.10;;
73675;SDS011;61975;48.660;10.164;2022-10-17T03:22:07;4.07;;;1.90;;
73675;SDS011;61975;48.660;10.164;2022-10-17T03:24:32;4.00;;;1.93;;
73675;SDS011;61975;48.660;10.164;2022-10-17T03:26:57;4.70;;;2.00;;
73675;SDS011;61975;48.660;10.164;2022-10-17T03:29:23;4.45;;;1.85;;
73675;SDS011;61975;48.660;10.164;2022-10-17T03:31:48;5.93;;;1.95;;
73675;SDS011;61975;48.660;10.164;2022-10-17T03:34:14;4.07;;;1.80;;
73675;SDS011;61975;48.660;10.164;2022-10-17T03:36:41;6.68;;;2.10;;
73675;SDS011;61975;48.660;10.164;2022-10-17T03:39:07;5.17;;;1.90;;
73675;SDS011;61975;48.660;10.164;2022-10-17T03:41:33;5.50;;;1.90;;
73675;SDS011;61975;48.660;10.164;2022-10-17T03:43:59;3.80;;;1.90;;
73675;SDS011;61975;48.660;10.164;2022-10-17T03:46:25;5.57;;;2.08;;
73675;SDS011;61975;48.660;10.164;2022-10-17T03:48:50;5.77;;;2.07;;
73675;SDS011;61975;48.660;10.164;2022-10-17T03:51:15;5.47;;;1.90;;
73675;SDS011;61975;48.660;10.164;2022-10-17T03:53:41;5.30;;;1.97;;
73675;SDS011;61975;48.660;10.164;2022-10-17T03:58:42;4.07;;;1.80;;
73675;SDS011;61975;48.660;10.164;2022-10-17T04:01:08;8.35;;;1.80;;
73675;SDS011;61975;48.660;10.164;2022-10-17T04:03:35;4.38;;;1.80;;
73675;SDS011;61975;48.660;10.164;2022-10-17T04:06:01;5.33;;;1.80;;
73675;SDS011;61975;48.660;10.164;2022-10-17T04:08:27;5.03;;;2.08;;
73675;SDS011;61975;48.660;10.164;2022-10-17T04:10:57;4.63;;;2.00;;
73675;SDS011;61975;48.660;10.164;2022-10-17T04:13:23;6.93;;;2.17;;
73675;SDS011;61975;48.660;10.164;2022-10-17T04:15:55;3.60;;;1.90;;
73675;SDS011;61975;48.660;10.164;2022-10-17T04:18:30;6.60;;;1.75;;
73675;SDS011;61975;48.660;10.164;2022-10-17T04:20:56;5.20;;;1.70;;
73675;SDS011;61975;48.660;10.164;2022-10-17T04:23:22;8.37;;;1.77;;
73675;SDS011;61975;48.660;10.164;2022-10-17T04:25:47;6.30;;;1.77;;
73675;SDS011;61975;48.660;10.164;2022-10-17T04:28:13;4.37;;;1.63;;
73675;SDS011;61975;48.660;10.164;2022-10-17T04:30:39;3.90;;;1.90;;
73675;SDS011;61975;48.660;10.164;2022-10-17T04:33:04;8.00;;;1.70;;
73675;SDS011;61975;48.660;10.164;2022-10-17T04:35:29;6.75;;;1.80;;
73675;SDS011;61975;48.660;10.164;2022-10-17T04:37:55;6.97;;;1.77;;
73675;SDS011;61975;48.660;10.164;2022-10-17T04:40:20;3.70;;;1.70;;
73675;SDS011;61975;48.660;10.164;2022-10-17T04:42:46;3.57;;;1.73;;
73675;SDS011;61975;48.660;10.164;2022-10-17T04:45:11;4.20;;;1.92;;
73675;SDS011;61975;48.660;10.164;2022-10-17T04:47:37;4.70;;;2.00;;
73675;SDS011;61975;48.660;10.164;2022-10-17T04:50:03;5.03;;;2.00;;
73675;SDS011;61975;48.660;10.164;2022-10-17T04:52:29;4.82;;;2.13;;
73675;SDS011;61975;48.660;10.164;2022-10-17T04:54:54;6.67;;;2.50;;
73675;SDS011;61975;48.660;10.164;2022-10-17T04:57:20;5.05;;;2.72;;
73675;SDS011;61975;48.660;10.164;2022-10-17T04:59:45;5.30;;;2.70;;
73675;SDS011;61975;48.660;10.164;2022-10-17T05:02:11;9.67;;;3.57;;
73675;SDS011;61975;48.660;10.164;2022-10-17T05:04:36;7.80;;;3.40;;
73675;SDS011;61975;48.660;10.164;2022-10-17T05:07:01;7.60;;;3.55;;
73675;SDS011;61975;48.660;10.164;2022-10-17T05:09:27;6.47;;;3.28;;
73675;SDS011;61975;48.660;10.164;2022-10-17T05:11:53;5.07;;;2.50;;
73675;SDS011;61975;48.660;10.164;2022-10-17T05:14:18;5.93;;;2.33;;
73675;SDS011;61975;48.660;10.164;2022-10-17T05:16:44;5.17;;;2.30;;
73675;SDS011;61975;48.660;10.164;2022-10-17T05:19:09;4.07;;;2.30;;
73675;SDS011;61975;48.660;10.164;2022-10-17T05:21:35;4.90;;;2.13;;
73675;SDS011;61975;48.660;10.164;2022-10-17T05:24:03;5.83;;;2.10;;
73675;SDS011;61975;48.660;10.164;2022-10-17T05:26:29;6.05;;;2.03;;
73675;SDS011;61975;48.660;10.164;2022-10-17T05:28:55;5.07;;;2.50;;
73675;SDS011;61975;48.660;10.164;2022-10-17T05:31:20;5.63;;;2.90;;
73675;SDS011;61975;48.660;10.164;2022-10-17T05:33:46;6.68;;;2.88;;
73675;SDS011;61975;48.660;10.164;2022-10-17T05:36:11;4.73;;;2.10;;
73675;SDS011;61975;48.660;10.164;2022-10-17T05:38:36;6.03;;;2.60;;
73675;SDS011;61975;48.660;10.164;2022-10-17T05:41:03;8.47;;;2.80;;
73675;SDS011;61975;48.660;10.164;2022-10-17T05:43:29;6.40;;;2.22;;
73675;SDS011;61975;48.660;10.164;2022-10-17T05:45:55;6.15;;;2.20;;
73675;SDS011;61975;48.660;10.164;2022-10-17T05:48:21;6.67;;;2.20;;
73675;SDS011;61975;48.660;10.164;2022-10-17T05:50:47;5.15;;;2.22;;
73675;SDS011;61975;48.660;10.164;2022-10-17T05:53:13;6.80;;;1.80;;
73675;SDS011;61975;48.660;10.164;2022-10-17T05:55:38;6.00;;;2.00;;
73675;SDS011;61975;48.660;10.164;2022-10-17T05:58:04;6.27;;;2.37;;
73675;SDS011;61975;48.660;10.164;2022-10-17T06:00:29;6.57;;;2.50;;
73675;SDS011;61975;48.660;10.164;2022-10-17T06:02:55;6.28;;;2.50;;
73675;SDS011;61975;48.660;10.164;2022-10-17T06:05:20;8.30;;;2.77;;
73675;SDS011;61975;48.660;10.164;2022-10-17T06:07:45;7.83;;;2.83;;
73675;SDS011;61975;48.660;10.164;2022-10-17T06:10:12;5.22;;;2.75;;
73675;SDS011;61975;48.660;10.164;2022-10-17T06:12:40;7.18;;;3.03;;
73675;SDS011;61975;48.660;10.164;2022-10-17T06:15:05;8.20;;;4.30;;
73675;SDS011;61975;48.660;10.164;2022-10-17T06:17:31;13.50;;;5.95;;
73675;SDS011;61975;48.660;10.164;2022-10-17T06:19:56;9.90;;;5.00;;
73675;SDS011;61975;48.660;10.164;2022-10-17T06:22:22;7.93;;;3.23;;
73675;SDS011;61975;48.660;10.164;2022-10-17T06:24:47;5.60;;;2.70;;
73675;SDS011;61975;48.660;10.164;2022-10-17T06:27:13;6.80;;;2.70;;
73675;SDS011;61975;48.660;10.164;2022-10-17T06:29:38;8.67;;;2.53;;
73675;SDS011;61975;48.660;10.164;2022-10-17T06:32:04;7.20;;;2.42;;
73675;SDS011;61975;48.660;10.164;2022-10-17T06:34:30;7.78;;;2.70;;
73675;SDS011;61975;48.660;10.164;2022-10-17T06:36:56;10.20;;;3.27;;
73675;SDS011;61975;48.660;10.164;2022-10-17T06:39:21;7.37;;;3.30;;
73675;SDS011;61975;48.660;10.164;2022-10-17T06:41:47;8.80;;;3.20;;
73675;SDS011;61975;48.660;10.164;2022-10-17T06:44:12;6.87;;;3.00;;
73675;SDS011;61975;48.660;10.164;2022-10-17T06:46:38;7.50;;;2.83;;
73675;SDS011;61975;48.660;10.164;2022-10-17T06:49:04;4.90;;;2.70;;
73675;SDS011;61975;48.660;10.164;2022-10-17T06:51:30;5.35;;;2.70;;
73675;SDS011;61975;48.660;10.164;2022-10-17T06:53:58;6.35;;;2.97;;
73675;SDS011;61975;48.660;10.164;2022-10-17T06:56:24;6.85;;;3.20;;
73675;SDS011;61975;48.660;10.164;2022-10-17T06:58:49;5.90;;;3.00;;
73675;SDS011;61975;48.660;10.164;2022-10-17T07:01:15;6.90;;;3.00;;
73675;SDS011;61975;48.660;10.164;2022-10-17T07:03:41;6.85;;;2.92;;
73675;SDS011;61975;48.660;10.164;2022-10-17T07:06:07;5.63;;;2.63;;
73675;SDS011;61975;48.660;10.164;2022-10-17T07:08:35;5.57;;;2.97;;
73675;SDS011;61975;48.660;10.164;2022-10-17T07:11:08;6.33;;;2.50;;
73675;SDS011;61975;48.660;10.164;2022-10-17T07:13:34;8.27;;;2.80;;
73675;SDS011;61975;48.660;10.164;2022-10-17T07:16:00;6.68;;;2.63;;
73675;SDS011;61975;48.660;10.164;2022-10-17T07:18:26;5.37;;;2.40;;
73675;SDS011;61975;48.660;10.164;2022-10-17T07:20:52;6.87;;;2.60;;
73675;SDS011;61975;48.660;10.164;2022-10-17T07:23:18;8.20;;;2.50;;
73675;SDS011;61975;48.660;10.164;2022-10-17T07:25:44;5.53;;;2.50;;
73675;SDS011;61975;48.660;10.164;2022-10-17T07:28:09;5.97;;;2.30;;
73675;SDS011;61975;48.660;10.164;2022-10-17T07:30:35;5.40;;;2.47;;
73675;SDS011;61975;48.660;10.164;2022-10-17T07:33:00;6.23;;;2.30;;
73675;SDS011;61975;48.660;10.164;2022-10-17T07:35:26;7.57;;;2.33;;
73675;SDS011;61975;48.660;10.164;2022-10-17T07:37:51;6.33;;;2.67;;
73675;SDS011;61975;48.660;10.164;2022-10-17T07:40:16;8.32;;;2.38;;
73675;SDS011;61975;48.660;10.164;2022-10-17T07:42:42;6.93;;;2.60;;
73675;SDS011;61975;48.660;10.164;2022-10-17T07:45:07;7.07;;;2.40;;
73675;SDS011;61975;48.660;10.164;2022-10-17T07:47:33;5.68;;;2.25;;
73675;SDS011;61975;48.660;10.164;2022-10-17T07:50:02;6.72;;;2.58;;
73675;SDS011;61975;48.660;10.164;2022-10-17T07:52:29;5.33;;;2.40;;
73675;SDS011;61975;48.660;10.164;2022-10-17T07:54:55;4.78;;;2.47;;
73675;SDS011;61975;48.660;10.164;2022-10-17T07:57:21;5.90;;;2.60;;
73675;SDS011;61975;48.660;10.164;2022-10-17T07:59:46;6.50;;;2.80;;
73675;SDS011;61975;48.660;10.164;2022-10-17T08:02:22;6.27;;;2.50;;
73675;SDS011;61975;48.660;10.164;2022-10-17T08:04:49;8.30;;;2.45;;
73675;SDS011;61975;48.660;10.164;2022-10-17T08:07:15;5.35;;;2.58;;
73675;SDS011;61975;48.660;10.164;2022-10-17T08:09:40;6.40;;;2.60;;
73675;SDS011;61975;48.660;10.164;2022-10-17T08:12:06;5.65;;;2.70;;
73675;SDS011;61975;48.660;10.164;2022-10-17T08:14:32;6.23;;;2.60;;
73675;SDS011;61975;48.660;10.164;2022-10-17T08:16:57;7.23;;;2.87;;
73675;SDS011;61975;48.660;10.164;2022-10-17T08:19:23;6.18;;;2.78;;
73675;SDS011;61975;48.660;10.164;2022-10-17T08:21:48;6.50;;;3.10;;
73675;SDS011;61975;48.660;10.164;2022-10-17T08:24:14;10.97;;;3.60;;
73675;SDS011;61975;48.660;10.164;2022-10-17T08:26:39;6.70;;;3.47;;
73675;SDS011;61975;48.660;10.164;2022-10-17T08:29:05;8.80;;;4.07;;
73675;SDS011;61975;48.660;10.164;2022-10-17T08:31:30;6.27;;;3.90;;
73675;SDS011;61975;48.660;10.164;2022-10-17T08:33:56;8.23;;;4.20;;
73675;SDS011;61975;48.660;10.164;2022-10-17T08:36:21;9.43;;;4.53;;
73675;SDS011;61975;48.660;10.164;2022-10-17T08:38:47;10.80;;;4.87;;
73675;SDS011;61975;48.660;10.164;2022-10-17T08:41:13;9.17;;;4.80;;
73675;SDS011;61975;48.660;10.164;2022-10-17T08:44:04;10.15;;;5.30;;
73675;SDS011;61975;48.660;10.164;2022-10-17T08:46:44;10.55;;;4.95;;
73675;SDS011;61975;48.660;10.164;2022-10-17T08:49:47;11.43;;;5.80;;
73675;SDS011;61975;48.660;10.164;2022-10-17T08:52:26;12.70;;;6.60;;
73675;SDS011;61975;48.660;10.164;2022-10-17T08:54:59;10.77;;;6.97;;
73675;SDS011;61975;48.660;10.164;2022-10-17T08:57:24;10.70;;;7.30;;
73675;SDS011;61975;48.660;10.164;2022-10-17T08:59:51;10.85;;;7.00;;
73675;SDS011;61975;48.660;10.164;2022-10-17T09:18:38;13.23;;;6.20;;
73675;SDS011;61975;48.660;10.164;2022-10-17T09:21:24;10.25;;;6.50;;
73675;SDS011;61975;48.660;10.164;2022-10-17T09:24:01;9.65;;;5.82;;
73675;SDS011;61975;48.660;10.164;2022-10-17T09:26:30;10.40;;;6.40;;
73675;SDS011;61975;48.660;10.164;2022-10-17T09:28:56;10.40;;;6.35;;
73675;SDS011;61975;48.660;10.164;2022-10-17T09:31:34;14.38;;;6.65;;
73675;SDS011;61975;48.660;10.164;2022-10-17T09:34:08;11.60;;;7.03;;
73675;SDS011;61975;48.660;10.164;2022-10-17T09:36:36;10.95;;;7.40;;
73675;SDS011;61975;48.660;10.164;2022-10-17T09:39:13;9.98;;;7.20;;
73675;SDS011;61975;48.660;10.164;2022-10-17T09:41:52;11.55;;;7.50;;
73675;SDS011;61975;48.660;10.164;2022-10-17T09:49:37;7.50;;;5.32;;
73675;SDS011;61975;48.660;10.164;2022-10-17T09:52:09;9.27;;;4.65;;
73675;SDS011;61975;48.660;10.164;2022-10-17T09:57:17;10.02;;;5.20;;
73675;SDS011;61975;48.660;10.164;2022-10-17T09:59:45;8.77;;;5.50;;
73675;SDS011;61975;48.660;10.164;2022-10-17T10:02:20;9.43;;;4.80;;
73675;SDS011;61975;48.660;10.164;2022-10-17T10:04:55;7.80;;;4.00;;
73675;SDS011;61975;48.660;10.164;2022-10-17T10:07:27;9.30;;;4.93;;
73675;SDS011;61975;48.660;10.164;2022-10-17T10:09:54;8.35;;;4.85;;
73675;SDS011;61975;48.660;10.164;2022-10-17T10:12:25;8.52;;;4.88;;
73675;SDS011;61975;48.660;10.164;2022-10-17T10:14:52;9.18;;;4.90;;
73675;SDS011;61975;48.660;10.164;2022-10-17T10:17:32;9.90;;;4.90;;
73675;SDS011;61975;48.660;10.164;2022-10-17T10:19:59;8.33;;;4.57;;
73675;SDS011;61975;48.660;10.164;2022-10-17T10:22:25;11.30;;;4.00;;
73675;SDS011;61975;48.660;10.164;2022-10-17T10:25:05;9.77;;;4.38;;
73675;SDS011;61975;48.660;10.164;2022-10-17T10:27:42;6.33;;;3.70;;
73675;SDS011;61975;48.660;10.164;2022-10-17T10:30:24;7.22;;;4.30;;
73675;SDS011;61975;48.660;10.164;2022-10-17T10:32:53;8.60;;;4.22;;
73675;SDS011;61975;48.660;10.164;2022-10-17T10:37:54;8.80;;;3.88;;
73675;SDS011;61975;48.660;10.164;2022-10-17T10:40:23;7.23;;;3.50;;
73675;SDS011;61975;48.660;10.164;2022-10-17T10:42:51;7.75;;;3.70;;
73675;SDS011;61975;48.660;10.164;2022-10-17T10:56:07;8.32;;;4.70;;
73675;SDS011;61975;48.660;10.164;2022-10-17T11:06:35;9.33;;;4.67;;
73675;SDS011;61975;48.660;10.164;2022-10-17T11:09:45;8.10;;;4.60;;
73675;SDS011;61975;48.660;10.164;2022-10-17T11:12:10;8.07;;;4.80;;
73675;SDS011;61975;48.660;10.164;2022-10-17T11:14:46;8.70;;;5.07;;
73675;SDS011;61975;48.660;10.164;2022-10-17T11:17:34;8.10;;;4.90;;
73675;SDS011;61975;48.660;10.164;2022-10-17T11:22:43;8.90;;;4.22;;
73675;SDS011;61975;48.660;10.164;2022-10-17T11:25:27;8.73;;;4.50;;
73675;SDS011;61975;48.660;10.164;2022-10-17T11:27:59;8.05;;;4.57;;
73675;SDS011;61975;48.660;10.164;2022-10-17T11:30:27;9.10;;;4.80;;
73675;SDS011;61975;48.660;10.164;2022-10-17T11:32:59;10.47;;;4.60;;
73675;SDS011;61975;48.660;10.164;2022-10-17T11:37:59;8.67;;;4.40;;
73675;SDS011;61975;48.660;10.164;2022-10-17T11:40:48;10.40;;;4.72;;
73675;SDS011;61975;48.660;10.164;2022-10-17T11:46:25;8.98;;;4.88;;
73675;SDS011;61975;48.660;10.164;2022-10-17T11:48:57;9.45;;;4.90;;
73675;SDS011;61975;48.660;10.164;2022-10-17T11:51:30;8.70;;;5.10;;
73675;SDS011;61975;48.660;10.164;2022-10-17T11:54:11;9.75;;;5.38;;
73675;SDS011;61975;48.660;10.164;2022-10-17T11:56:57;9.13;;;5.70;;
73675;SDS011;61975;48.660;10.164;2022-10-17T12:07:33;13.02;;;5.82;;
73675;SDS011;61975;48.660;10.164;2022-10-17T12:15:52;8.20;;;5.50;;
73675;SDS011;61975;48.660;10.164;2022-10-17T12:18:23;10.70;;;5.85;;
73675;SDS011;61975;48.660;10.164;2022-10-17T12:20:55;11.37;;;5.50;;
73675;SDS011;61975;48.660;10.164;2022-10-17T12:23:25;9.77;;;5.20;;
73675;SDS011;61975;48.660;10.164;2022-10-17T12:25:59;8.73;;;5.40;;
73675;SDS011;61975;48.660;10.164;2022-10-17T12:28:32;9.88;;;4.95;;
73675;SDS011;61975;48.660;10.164;2022-10-17T12:33:56;9.50;;;4.97;;
73675;SDS011;61975;48.660;10.164;2022-10-17T12:42:20;9.07;;;4.28;;
73675;SDS011;61975;48.660;10.164;2022-10-17T12:57:32;8.57;;;3.85;;
73675;SDS011;61975;48.660;10.164;2022-10-17T13:00:19;9.10;;;4.35;;
73675;SDS011;61975;48.660;10.164;2022-10-17T13:06:15;6.43;;;3.67;;
73675;SDS011;61975;48.660;10.164;2022-10-17T13:08:43;9.80;;;3.58;;
73675;SDS011;61975;48.660;10.164;2022-10-17T13:11:13;8.18;;;3.40;;
73675;SDS011;61975;48.660;10.164;2022-10-17T13:19:01;11.00;;;3.47;;
73675;SDS011;61975;48.660;10.164;2022-10-17T13:21:28;6.30;;;3.17;;
73675;SDS011;61975;48.660;10.164;2022-10-17T13:23:54;9.15;;;3.70;;
73675;SDS011;61975;48.660;10.164;2022-10-17T13:26:21;6.77;;;3.50;;
73675;SDS011;61975;48.660;10.164;2022-10-17T13:29:03;8.27;;;3.47;;
73675;SDS011;61975;48.660;10.164;2022-10-17T13:31:34;6.10;;;3.58;;
73675;SDS011;61975;48.660;10.164;2022-10-17T13:34:03;8.32;;;3.78;;
73675;SDS011;61975;48.660;10.164;2022-10-17T13:36:30;8.03;;;3.70;;
73675;SDS011;61975;48.660;10.164;2022-10-17T13:38:58;9.48;;;3.55;;
73675;SDS011;61975;48.660;10.164;2022-10-17T13:41:29;8.23;;;3.42;;
73675;SDS011;61975;48.660;10.164;2022-10-17T13:43:59;10.18;;;3.80;;
73675;SDS011;61975;48.660;10.164;2022-10-17T13:46:27;7.38;;;3.67;;
73675;SDS011;61975;48.660;10.164;2022-10-17T13:48:56;6.93;;;3.60;;
73675;SDS011;61975;48.660;10.164;2022-10-17T13:51:24;11.00;;;3.63;;
73675;SDS011;61975;48.660;10.164;2022-10-17T13:53:51;8.43;;;3.47;;
73675;SDS011;61975;48.660;10.164;2022-10-17T14:01:14;8.63;;;3.50;;
73675;SDS011;61975;48.660;10.164;2022-10-17T14:03:44;6.88;;;3.30;;
73675;SDS011;61975;48.660;10.164;2022-10-17T14:08:47;5.78;;;2.90;;
73675;SDS011;61975;48.660;10.164;2022-10-17T14:13:56;10.60;;;3.20;;
73675;SDS011;61975;48.660;10.164;2022-10-17T14:16:23;7.03;;;2.83;;
73675;SDS011;61975;48.660;10.164;2022-10-17T14:18:50;9.90;;;3.03;;
73675;SDS011;61975;48.660;10.164;2022-10-17T14:21:18;4.50;;;2.47;;
73675;SDS011;61975;48.660;10.164;2022-10-17T14:23:49;7.47;;;2.80;;
73675;SDS011;61975;48.660;10.164;2022-10-17T14:26:17;4.90;;;2.30;;
73675;SDS011;61975;48.660;10.164;2022-10-17T14:29:05;7.97;;;2.95;;
73675;SDS011;61975;48.660;10.164;2022-10-17T14:31:42;6.30;;;1.88;;
73675;SDS011;61975;48.660;10.164;2022-10-17T14:34:18;4.77;;;2.10;;
73675;SDS011;61975;48.660;10.164;2022-10-17T14:36:47;4.40;;;1.92;;
73675;SDS011;61975;48.660;10.164;2022-10-17T14:39:18;4.85;;;1.90;;
73675;SDS011;61975;48.660;10.164;2022-10-17T14:41:46;7.00;;;1.90;;
73675;SDS011;61975;48.660;10.164;2022-10-17T14:44:14;6.93;;;2.00;;
73675;SDS011;61975;48.660;10.164;2022-10-17T14:46:44;4.88;;;1.90;;
73675;SDS011;61975;48.660;10.164;2022-10-17T14:49:15;5.72;;;2.05;;
73675;SDS011;61975;48.660;10.164;2022-10-17T14:54:47;6.70;;;2.20;;
73675;SDS011;61975;48.660;10.164;2022-10-17T14:59:41;6.13;;;1.80;;
73675;SDS011;61975;48.660;10.164;2022-10-17T15:02:07;4.85;;;1.67;;
73675;SDS011;61975;48.660;10.164;2022-10-17T15:04:33;4.03;;;1.80;;
73675;SDS011;61975;48.660;10.164;2022-10-17T15:06:58;6.87;;;1.80;;
73675;SDS011;61975;48.660;10.164;2022-10-17T15:09:24;4.60;;;1.60;;
73675;SDS011;61975;48.660;10.164;2022-10-17T15:11:52;4.90;;;1.70;;
73675;SDS011;61975;48.660;10.164;2022-10-17T15:14:18;5.25;;;1.83;;
73675;SDS011;61975;48.660;10.164;2022-10-17T15:16:43;5.57;;;1.73;;
73675;SDS011;61975;48.660;10.164;2022-10-17T15:19:09;6.43;;;1.90;;
73675;SDS011;61975;48.660;10.164;2022-10-17T15:21:37;4.68;;;2.08;;
73675;SDS011;61975;48.660;10.164;2022-10-17T15:24:03;5.30;;;1.90;;
73675;SDS011;61975;48.660;10.164;2022-10-17T15:26:29;6.32;;;1.90;;
73675;SDS011;61975;48.660;10.164;2022-10-17T15:28:56;4.68;;;1.90;;
73675;SDS011;61975;48.660;10.164;2022-10-17T15:31:22;6.30;;;1.87;;
73675;SDS011;61975;48.660;10.164;2022-10-17T15:33:50;6.05;;;1.75;;
73675;SDS011;61975;48.660;10.164;2022-10-17T15:36:24;4.43;;;1.80;;
73675;SDS011;61975;48.660;10.164;2022-10-17T15:39:03;3.07;;;1.70;;
73675;SDS011;61975;48.660;10.164;2022-10-17T15:41:30;6.18;;;1.70;;
73675;SDS011;61975;48.660;10.164;2022-10-17T15:43:56;4.53;;;1.70;;
73675;SDS011;61975;48.660;10.164;2022-10-17T15:46:23;5.30;;;1.70;;
73675;SDS011;61975;48.660;10.164;2022-10-17T15:48:51;5.20;;;1.55;;
73675;SDS011;61975;48.660;10.164;2022-10-17T15:51:17;6.18;;;1.70;;
73675;SDS011;61975;48.660;10.164;2022-10-17T15:53:43;5.43;;;1.50;;
73675;SDS011;61975;48.660;10.164;2022-10-17T15:56:19;5.43;;;1.60;;
73675;SDS011;61975;48.660;10.164;2022-10-17T15:58:47;5.50;;;1.80;;
73675;SDS011;61975;48.660;10.164;2022-10-17T16:01:23;5.13;;;1.90;;
73675;SDS011;61975;48.660;10.164;2022-10-17T16:03:51;5.53;;;2.00;;
73675;SDS011;61975;48.660;10.164;2022-10-17T16:06:17;5.32;;;1.90;;
73675;SDS011;61975;48.660;10.164;2022-10-17T16:08:44;6.03;;;2.17;;
73675;SDS011;61975;48.660;10.164;2022-10-17T16:11:13;5.72;;;2.40;;
73675;SDS011;61975;48.660;10.164;2022-10-17T16:13:48;7.17;;;2.20;;
73675;SDS011;61975;48.660;10.164;2022-10-17T16:16:16;9.18;;;2.15;;
73675;SDS011;61975;48.660;10.164;2022-10-17T16:18:42;5.47;;;2.15;;
73675;SDS011;61975;48.660;10.164;2022-10-17T16:21:11;6.57;;;1.93;;
73675;SDS011;61975;48.660;10.164;2022-10-17T16:23:38;5.65;;;2.10;;
73675;SDS011;61975;48.660;10.164;2022-10-17T16:26:03;5.90;;;2.00;;
73675;SDS011;61975;48.660;10.164;2022-10-17T16:28:29;9.65;;;2.42;;
73675;SDS011;61975;48.660;10.164;2022-10-17T16:30:54;7.40;;;2.20;;
73675;SDS011;61975;48.660;10.164;2022-10-17T16:33:20;6.20;;;2.20;;
73675;SDS011;61975;48.660;10.164;2022-10-17T16:35:45;8.37;;;2.17;;
73675;SDS011;61975;48.660;10.164;2022-10-17T16:38:13;7.13;;;2.30;;
73675;SDS011;61975;48.660;10.164;2022-10-17T16:40:38;6.33;;;2.40;;
73675;SDS011;61975;48.660;10.164;2022-10-17T16:43:04;49.55;;;25.20;;
73675;SDS011;61975;48.660;10.164;2022-10-17T16:45:30;67.63;;;40.97;;
73675;SDS011;61975;48.660;10.164;2022-10-17T16:47:55;32.33;;;17.25;;
73675;SDS011;61975;48.660;10.164;2022-10-17T16:50:21;16.83;;;7.23;;
73675;SDS011;61975;48.660;10.164;2022-10-17T16:52:46;9.60;;;5.00;;
73675;SDS011;61975;48.660;10.164;2022-10-17T16:55:12;12.60;;;6.77;;
73675;SDS011;61975;48.660;10.164;2022-10-17T16:57:37;13.68;;;8.70;;
73675;SDS011;61975;48.660;10.164;2022-10-17T17:00:03;12.73;;;6.47;;
73675;SDS011;61975;48.660;10.164;2022-10-17T17:02:30;14.88;;;7.28;;
73675;SDS011;61975;48.660;10.164;2022-10-17T17:04:55;18.97;;;10.37;;
73675;SDS011;61975;48.660;10.164;2022-10-17T17:07:21;20.37;;;12.90;;
73675;SDS011;61975;48.660;10.164;2022-10-17T17:09:48;39.63;;;27.23;;
73675;SDS011;61975;48.660;10.164;2022-10-17T17:12:13;29.23;;;19.30;;